Portada
METAR-TAF:

METAR-TAF

Aeroports :

Zahedan, Iran

latitud: 29-28N, longitud: 060-53E, altitud: 1370 m

Observació

L'informe es va fer fa 20 minuts, a les 09:00 UTC
Vent 10 kt del Nord-Est
Temperatura 31°C
Humitat 19%
Pressió 1008 hPa
Visibilitat: 6000 m

METAR: OIZH 050900Z 05010KT 6000 NSC 31/05 Q1008 A2978 NOSIG

Hora: 13:50 (09:20 UTC)

Pronòstic

L'informe es va fer fa 3 hores i 30 minuts, a les 05:50 UTC
Pronòstic vàlid del 05 a les 06 UTC al 06 a les 12 UTC
Vent 8 kt del Nord/Nord-Est
Visibilitat: 4000 m
Escasses núvols a una alçada de 4000 ft
Pols estès
Temporalment
l' 05 a les 09 UTC al 05 a les 15 UTC
Vent 18 kt del Nord/Nord-Est
Visibilitat: 1500 m
Evolucionant progressivament
l' 05 a les 20 UTC al 05 a les 22 UTC
Visibilitat: 6000 m
Temporalment
l' 06 a les 08 UTC al 06 a les 12 UTC
Vent 18 kt del Nord/Nord-Est
Visibilitat: 3000 m

TAF: OIZH 050550Z 0506/0612 02008KT 4000 DU FEW040 TEMPO 0509/0515 02018KT 1500 SA/DU BECMG 0520/0522 6000 TEMPO 0608/0612 03018KT 3000 SA/DU

Observacions i pronòstics meteorològics de més de 4000 aeroports (METAR i TAF).

Les estacions disponibles són els punts grocs i vermells al mapa.

Posi el ratolí al punt desitjat per veure el nom de l'estació.

Feu clic per veure les observacions i els pronòstics meteorològics.

Per canviar el mapa: feu clic els botons verds amb una creu de color negre per apropar; al botó verd amb un guió per allunyar la imatge; o en les fletxes verdes per a mapes adjacents.


METAR-TAF: